Time;durP1;ratioP1;P1;durP2;ratioP2;P2;SDS_P1;SDS_P2;PMS_P1;PMS_P2;Temp;Humidity;BMP_temperature;BMP_pressure;BME280_temperature;BME280_humidity;BME280_pressure;Samples;Min_cycle;Max_cycle;Signal;HPM_P1;HPM_P2
2023/07/08 00:01:13;;;;;;;7.43;4.10;;;16.40;99.90;;;;;;5077463;28;20536;-53
2023/07/08 00:03:39;;;;;;;8.27;4.00;;;16.30;99.90;;;;;;5077234;28;20043;-55
2023/07/08 00:06:11;;;;;;;7.88;3.88;;;16.30;99.90;;;;;;5075994;28;20044;-54
2023/07/08 00:08:37;;;;;;;8.48;3.90;;;16.30;99.90;;;;;;5075591;28;20119;-54
2023/07/08 00:11:11;;;;;;;6.95;4.05;;;16.40;99.90;;;;;;5074317;28;20074;-54
2023/07/08 00:13:37;;;;;;;7.05;3.65;;;16.10;99.90;;;;;;5074180;28;20408;-53
2023/07/08 00:16:03;;;;;;;9.85;3.88;;;16.10;99.90;;;;;;5074076;28;20040;-55
2023/07/08 00:18:28;;;;;;;8.48;4.00;;;16.10;99.90;;;;;;5073714;28;20044;-53
2023/07/08 00:20:54;;;;;;;9.38;4.25;;;16.10;99.90;;;;;;5075413;28;20658;-54
2023/07/08 00:23:21;;;;;;;7.97;4.20;;;16.20;99.90;;;;;;5073910;28;20051;-53
2023/07/08 00:25:47;;;;;;;11.10;4.07;;;16.00;99.90;;;;;;5073179;28;20433;-54
2023/07/08 00:28:19;;;;;;;6.40;3.90;;;16.20;99.90;;;;;;5074180;28;20040;-54
2023/07/08 00:30:45;;;;;;;6.95;3.75;;;16.20;99.90;;;;;;5074653;28;20036;-54
2023/07/08 00:33:11;;;;;;;8.15;3.70;;;16.20;99.90;;;;;;5073635;28;20624;-53
2023/07/08 00:35:42;;;;;;;7.57;3.75;;;16.10;99.90;;;;;;5074556;28;20075;-54
2023/07/08 00:38:15;;;;;;;10.13;4.25;;;16.00;99.90;;;;;;5074532;28;20062;-54
2023/07/08 00:41:08;;;;;;;10.07;4.15;;;16.10;99.90;;;;;;5057347;28;20040;-53
2023/07/08 00:43:33;;;;;;;6.75;3.90;;;15.90;99.90;;;;;;5073805;28;20028;-55
2023/07/08 00:46:27;;;;;;;7.32;4.00;;;15.90;99.90;;;;;;5073778;28;20263;-53
2023/07/08 00:49:18;;;;;;;12.32;4.40;;;15.90;99.90;;;;;;5073186;28;20044;-54
2023/07/08 00:51:44;;;;;;;10.70;4.43;;;16.10;99.90;;;;;;5073971;28;20046;-53
2023/07/08 00:54:18;;;;;;;7.30;4.38;;;15.90;99.90;;;;;;5073203;28;20036;-54
2023/07/08 00:56:49;;;;;;;9.63;4.57;;;15.80;99.90;;;;;;5074094;28;20032;-54
2023/07/08 00:59:23;;;;;;;7.57;4.13;;;15.80;99.90;;;;;;5074396;28;20250;-55
2023/07/08 01:01:49;;;;;;;9.07;4.20;;;15.70;99.90;;;;;;5074368;28;20036;-54
2023/07/08 01:04:24;;;;;;;9.38;3.58;;;15.80;99.90;;;;;;5073066;28;20189;-54
2023/07/08 01:06:57;;;;;;;6.82;4.00;;;15.70;99.90;;;;;;5075227;28;20032;-54
2023/07/08 01:09:26;;;;;;;7.85;4.10;;;15.80;99.90;;;;;;5056428;28;20048;-53
2023/07/08 01:11:54;;;;;;;9.18;4.80;;;15.70;99.90;;;;;;5075890;28;20040;-54
2023/07/08 01:14:22;;;;;;;7.00;3.95;;;15.90;99.90;;;;;;5073516;28;20138;-55
2023/07/08 01:16:49;;;;;;;7.35;4.10;;;15.50;99.90;;;;;;5073917;28;20109;-55
2023/07/08 01:19:19;;;;;;;8.07;4.13;;;15.80;99.90;;;;;;5054912;28;20043;-54
2023/07/08 01:21:53;;;;;;;11.15;5.22;;;15.60;99.90;;;;;;5072965;28;20087;-54
2023/07/08 01:24:19;;;;;;;7.05;4.18;;;15.50;99.90;;;;;;5071930;28;20044;-54
2023/07/08 01:26:45;;;;;;;10.05;4.57;;;15.60;99.90;;;;;;5054833;28;20075;-53
2023/07/08 01:29:12;;;;;;;10.30;4.68;;;15.60;99.90;;;;;;5072713;28;20047;-55
2023/07/08 01:31:38;;;;;;;10.48;4.60;;;15.70;99.90;;;;;;5073854;28;20039;-54
2023/07/08 01:34:05;;;;;;;9.45;4.70;;;15.50;99.90;;;;;;5072520;28;20051;-53
2023/07/08 01:36:42;;;;;;;7.53;4.53;;;15.60;99.90;;;;;;5071680;28;20097;-53
2023/07/08 01:39:17;;;;;;;7.72;4.40;;;15.50;99.90;;;;;;5056096;28;20106;-54
2023/07/08 01:41:43;;;;;;;7.63;4.07;;;15.60;99.90;;;;;;5074756;28;20532;-53
2023/07/08 01:44:42;;;;;;;9.35;4.57;;;15.70;99.90;;;;;;5073352;28;20081;-53
2023/07/08 01:47:25;;;;;;;9.70;5.07;;;15.50;99.90;;;;;;5027406;28;20075;-53
2023/07/08 01:49:51;;;;;;;9.43;4.68;;;15.40;99.90;;;;;;5072161;28;20556;-53
2023/07/08 01:52:18;;;;;;;8.98;4.20;;;15.30;99.90;;;;;;5073737;28;20036;-53
2023/07/08 01:54:43;;;;;;;7.68;4.35;;;15.30;99.90;;;;;;5073102;28;20036;-52
2023/07/08 01:57:09;;;;;;;7.22;3.85;;;15.30;99.90;;;;;;5054693;28;20051;-52
2023/07/08 01:59:35;;;;;;;9.13;4.18;;;15.40;99.90;;;;;;5072645;28;20451;-50
2023/07/08 02:02:01;;;;;;;8.52;4.32;;;15.30;99.90;;;;;;5073757;28;20397;-50
2023/07/08 02:04:30;;;;;;;7.63;4.47;;;15.40;99.90;;;;;;5073000;28;20693;-53
2023/07/08 02:06:57;;;;;;;8.70;4.22;;;15.20;99.90;;;;;;5072093;28;20274;-53
2023/07/08 02:09:24;;;;;;;8.82;4.53;;;15.20;99.90;;;;;;5073326;28;20362;-51
2023/07/08 02:11:51;;;;;;;8.38;4.53;;;15.30;99.90;;;;;;5073198;28;20470;-54
2023/07/08 02:14:16;;;;;;;7.85;4.72;;;15.00;99.90;;;;;;5072153;28;20036;-52
2023/07/08 02:16:42;;;;;;;8.43;4.15;;;15.20;99.90;;;;;;5074422;28;20326;-54
2023/07/08 02:19:08;;;;;;;8.10;4.30;;;15.10;99.90;;;;;;5072820;28;20050;-54
2023/07/08 02:21:34;;;;;;;9.65;4.38;;;15.10;99.90;;;;;;5073369;28;20032;-53
2023/07/08 02:24:00;;;;;;;9.48;4.68;;;15.20;99.90;;;;;;5073563;28;20182;-54
2023/07/08 02:26:26;;;;;;;9.15;4.80;;;15.20;99.90;;;;;;5073035;28;20044;-54
2023/07/08 02:28:52;;;;;;;9.43;4.80;;;14.90;99.90;;;;;;5073799;28;20492;-54
2023/07/08 02:31:17;;;;;;;8.80;4.55;;;14.90;99.90;;;;;;5073226;28;20400;-54
2023/07/08 02:33:43;;;;;;;9.05;4.50;;;15.00;99.90;;;;;;5073180;28;20530;-51
2023/07/08 02:36:09;;;;;;;10.82;5.22;;;14.90;99.90;;;;;;5074445;28;20040;-54
2023/07/08 02:38:35;;;;;;;9.88;4.05;;;14.80;99.90;;;;;;5074613;28;20469;-52
2023/07/08 02:41:01;;;;;;;8.23;4.93;;;15.10;99.90;;;;;;5074029;28;20067;-49
2023/07/08 02:43:26;;;;;;;7.40;4.82;;;14.90;99.90;;;;;;5072626;28;20496;-54
2023/07/08 02:45:52;;;;;;;10.52;4.82;;;14.80;99.90;;;;;;5072366;28;20070;-53
2023/07/08 02:48:19;;;;;;;8.45;4.78;;;15.00;99.90;;;;;;5075142;28;20046;-51
2023/07/08 02:50:45;;;;;;;10.07;4.75;;;15.00;99.90;;;;;;5077446;28;20047;-53
2023/07/08 02:53:11;;;;;;;7.13;4.18;;;14.90;99.90;;;;;;5076466;28;20058;-54
2023/07/08 02:55:38;;;;;;;12.20;5.30;;;14.90;99.90;;;;;;5076549;28;20555;-54
2023/07/08 02:58:03;;;;;;;10.38;5.22;;;14.90;99.90;;;;;;5076440;28;20087;-53
2023/07/08 03:00:29;;;;;;;9.73;5.07;;;14.90;99.90;;;;;;5076649;28;20380;-52
2023/07/08 03:02:54;;;;;;;9.60;5.03;;;14.90;99.90;;;;;;5075347;28;20421;-48
2023/07/08 03:05:20;;;;;;;7.97;5.15;;;14.80;99.90;;;;;;5075977;28;20028;-54
2023/07/08 03:07:46;;;;;;;8.52;5.20;;;14.90;99.90;;;;;;5076129;28;20193;-52
2023/07/08 03:10:12;;;;;;;9.55;4.53;;;14.90;99.90;;;;;;5077862;28;20059;-51
2023/07/08 03:12:37;;;;;;;8.00;5.30;;;15.10;99.90;;;;;;5076764;28;20516;-52
2023/07/08 03:15:04;;;;;;;7.63;4.63;;;15.00;99.90;;;;;;5076023;28;20075;-54
2023/07/08 03:17:30;;;;;;;8.05;5.32;;;14.90;99.90;;;;;;5076466;28;20040;-52
2023/07/08 03:19:56;;;;;;;10.15;5.50;;;14.90;99.90;;;;;;5075986;28;20050;-53
2023/07/08 03:22:21;;;;;;;9.85;5.47;;;14.90;99.90;;;;;;5075401;28;20211;-51
2023/07/08 03:24:47;;;;;;;8.13;5.18;;;14.80;99.90;;;;;;5075850;28;20245;-49
2023/07/08 03:27:14;;;;;;;7.15;4.90;;;14.80;99.90;;;;;;5057749;28;20046;-50
2023/07/08 03:29:40;;;;;;;8.57;5.05;;;15.00;99.90;;;;;;5074895;28;20115;-54
2023/07/08 03:32:08;;;;;;;10.30;5.38;;;14.90;99.90;;;;;;5074966;28;20044;-52
2023/07/08 03:34:34;;;;;;;10.10;5.20;;;14.90;99.90;;;;;;5074425;28;20043;-53
2023/07/08 03:36:59;;;;;;;7.70;5.10;;;14.90;99.90;;;;;;5075700;28;21277;-53
2023/07/08 03:39:25;;;;;;;8.70;5.40;;;14.80;99.90;;;;;;5078017;28;20032;-52
2023/07/08 03:41:52;;;;;;;9.27;5.13;;;15.00;99.90;;;;;;5076439;28;20040;-54
2023/07/08 03:44:18;;;;;;;7.78;5.13;;;15.00;99.90;;;;;;5075527;28;20098;-54
2023/07/08 03:46:45;;;;;;;7.60;4.85;;;15.10;99.90;;;;;;5075954;28;20052;-52
2023/07/08 03:49:11;;;;;;;9.30;5.18;;;15.10;99.90;;;;;;5076236;28;20130;-51
2023/07/08 03:51:40;;;;;;;11.70;5.97;;;15.10;99.90;;;;;;5076122;28;20040;-59
2023/07/08 03:54:08;;;;;;;9.10;4.82;;;15.00;99.90;;;;;;5075490;28;20047;-59
2023/07/08 03:56:34;;;;;;;11.35;5.60;;;15.10;99.90;;;;;;5075323;28;20051;-59
2023/07/08 03:59:00;;;;;;;10.40;5.57;;;15.00;99.90;;;;;;5074228;28;20410;-58
2023/07/08 04:01:26;;;;;;;10.32;5.55;;;15.10;99.90;;;;;;5076154;28;20043;-60
2023/07/08 04:03:53;;;;;;;11.13;5.22;;;15.20;99.90;;;;;;5073837;28;20104;-59
2023/07/08 04:06:20;;;;;;;9.52;5.28;;;15.30;99.90;;;;;;5073901;28;20066;-61
2023/07/08 04:08:46;;;;;;;8.45;5.20;;;15.20;99.90;;;;;;5075669;28;20060;-60
2023/07/08 04:11:18;;;;;;;8.77;5.13;;;15.30;99.90;;;;;;5074713;28;20067;-59
2023/07/08 04:13:44;;;;;;;8.50;4.93;;;15.30;99.90;;;;;;5074840;28;20078;-60
2023/07/08 04:16:28;;;;;;;11.45;5.75;;;15.40;99.90;;;;;;5074054;28;20135;-59
2023/07/08 04:18:55;;;;;;;10.15;5.70;;;16.10;99.90;;;;;;5073783;28;20032;-59
2023/07/08 04:21:24;;;;;;;10.15;5.80;;;15.40;99.90;;;;;;5074733;28;20392;-60
2023/07/08 04:23:51;;;;;;;10.48;5.22;;;15.40;99.90;;;;;;5074742;28;20529;-59
2023/07/08 04:26:18;;;;;;;10.23;5.63;;;15.30;99.90;;;;;;5073727;28;20054;-59
2023/07/08 04:28:44;;;;;;;11.30;5.57;;;15.20;99.90;;;;;;5056188;28;20098;-59
2023/07/08 04:31:10;;;;;;;9.07;5.03;;;15.40;99.90;;;;;;5074548;28;20718;-60
2023/07/08 04:33:36;;;;;;;8.55;5.30;;;15.40;99.90;;;;;;5073236;28;20138;-60
2023/07/08 04:36:02;;;;;;;11.30;5.78;;;15.50;99.90;;;;;;5075289;28;20043;-59
2023/07/08 04:38:28;;;;;;;12.95;6.30;;;15.60;99.90;;;;;;5054870;28;20499;-59
2023/07/08 04:40:54;;;;;;;11.38;6.00;;;15.60;99.90;;;;;;5074582;28;20063;-58
2023/07/08 04:43:21;;;;;;;10.35;5.63;;;15.70;99.90;;;;;;5073483;28;21249;-60
2023/07/08 04:45:52;;;;;;;15.18;5.30;;;15.60;99.90;;;;;;5075008;28;20043;-61
2023/07/08 04:48:21;;;;;;;10.00;5.38;;;15.80;99.90;;;;;;5073920;28;20044;-59
2023/07/08 04:50:49;;;;;;;9.82;5.70;;;15.60;99.90;;;;;;5075452;28;20934;-59
2023/07/08 04:53:15;;;;;;;9.73;5.40;;;15.90;99.90;;;;;;5074361;28;20800;-59
2023/07/08 04:55:49;;;;;;;9.20;4.90;;;16.00;99.90;;;;;;5074910;28;20040;-59
2023/07/08 04:58:15;;;;;;;9.82;5.20;;;16.00;99.90;;;;;;5074308;28;20036;-60
2023/07/08 05:00:40;;;;;;;11.25;4.90;;;16.20;99.90;;;;;;5073750;28;20051;-60
2023/07/08 05:03:06;;;;;;;9.70;5.53;;;16.20;99.90;;;;;;5074616;28;20044;-59
2023/07/08 05:05:32;;;;;;;10.18;4.22;;;16.20;99.90;;;;;;5073856;28;20075;-60
2023/07/08 05:07:58;;;;;;;11.55;5.40;;;16.20;99.90;;;;;;5074039;28;20060;-59
2023/07/08 05:10:23;;;;;;;9.50;4.85;;;16.30;99.90;;;;;;5074770;28;20052;-59
2023/07/08 05:12:49;;;;;;;8.40;5.10;;;16.50;99.90;;;;;;5074960;28;20067;-60
2023/07/08 05:15:16;;;;;;;8.73;5.18;;;16.30;99.90;;;;;;5073994;28;20196;-53
2023/07/08 05:17:42;;;;;;;8.48;4.85;;;16.70;99.90;;;;;;5074027;28;20040;-53
2023/07/08 05:20:11;;;;;;;8.48;5.05;;;16.60;99.90;;;;;;5072729;28;20314;-53
2023/07/08 05:22:36;;;;;;;12.73;4.65;;;17.30;99.90;;;;;;5073329;28;20044;-53
2023/07/08 05:25:03;;;;;;;11.02;5.22;;;16.70;99.90;;;;;;5071908;28;20050;-54
2023/07/08 05:27:29;;;;;;;8.85;4.38;;;16.90;99.90;;;;;;5072799;28;20461;-54
2023/07/08 05:29:55;;;;;;;7.15;4.25;;;17.00;99.90;;;;;;5072746;28;20311;-53
2023/07/08 05:32:21;;;;;;;7.47;4.40;;;17.10;99.90;;;;;;5072991;28;20054;-53
2023/07/08 05:34:47;;;;;;;9.35;4.70;;;17.20;99.90;;;;;;5072316;28;20709;-54
2023/07/08 05:37:13;;;;;;;9.45;4.70;;;17.30;99.90;;;;;;5072785;28;20036;-54
2023/07/08 05:39:39;;;;;;;8.48;4.30;;;17.30;99.90;;;;;;5073045;28;20123;-53
2023/07/08 05:42:05;;;;;;;9.52;4.30;;;17.20;99.90;;;;;;5054922;28;20058;-54
2023/07/08 05:44:31;;;;;;;9.40;4.32;;;17.60;99.90;;;;;;5072611;28;20431;-54
2023/07/08 05:46:57;;;;;;;8.75;4.32;;;17.60;99.90;;;;;;5073198;28;20047;-55
2023/07/08 05:49:23;;;;;;;8.35;3.97;;;17.70;99.90;;;;;;5071616;28;20612;-54
2023/07/08 05:51:48;;;;;;;5.85;3.90;;;17.90;99.90;;;;;;5072772;28;20066;-51
2023/07/08 05:54:14;;;;;;;9.02;4.10;;;17.90;99.90;;;;;;5073258;28;20078;-53
2023/07/08 05:56:40;;;;;;;11.32;4.03;;;17.90;99.90;;;;;;5072414;28;20040;-54
2023/07/08 05:59:06;;;;;;;9.75;4.15;;;18.20;99.90;;;;;;5072320;28;20052;-54
2023/07/08 06:01:32;;;;;;;6.95;3.70;;;18.20;99.90;;;;;;5071940;28;20146;-53
2023/07/08 06:03:59;;;;;;;7.13;3.83;;;18.30;99.90;;;;;;5053060;28;20040;-54
2023/07/08 06:06:26;;;;;;;7.38;3.67;;;18.40;99.90;;;;;;5072409;28;20044;-54
2023/07/08 06:08:52;;;;;;;8.23;4.18;;;18.70;99.90;;;;;;5072330;28;20136;-55
2023/07/08 06:11:18;;;;;;;6.15;3.40;;;18.70;99.90;;;;;;5073703;28;20532;-52
2023/07/08 06:13:43;;;;;;;11.15;4.13;;;18.60;99.90;;;;;;5072393;28;20036;-55
2023/07/08 06:16:09;;;;;;;8.27;3.55;;;18.70;99.90;;;;;;5072748;28;20054;-54
2023/07/08 06:18:35;;;;;;;7.50;3.80;;;18.70;99.90;;;;;;5072494;28;20056;-54
2023/07/08 06:21:01;;;;;;;6.90;3.58;;;19.20;99.90;;;;;;5073766;28;20074;-54
2023/07/08 06:23:28;;;;;;;9.43;3.40;;;19.90;99.90;;;;;;5075533;28;20126;-54
2023/07/08 06:25:54;;;;;;;9.00;3.47;;;20.00;99.90;;;;;;5077112;28;20094;-51
2023/07/08 06:28:20;;;;;;;10.95;3.40;;;20.30;99.90;;;;;;5076575;28;20085;-55
2023/07/08 06:30:46;;;;;;;9.25;3.78;;;20.30;99.90;;;;;;5078910;28;20044;-51
2023/07/08 06:33:12;;;;;;;10.05;3.45;;;20.40;99.90;;;;;;5076497;28;20051;-54
2023/07/08 06:35:39;;;;;;;6.78;3.17;;;20.60;99.90;;;;;;5077668;28;20067;-54
2023/07/08 06:38:05;;;;;;;6.93;3.67;;;20.90;99.90;;;;;;5076391;28;20162;-53
2023/07/08 06:40:32;;;;;;;6.72;3.17;;;21.20;99.90;;;;;;5078460;28;20069;-54
2023/07/08 06:42:57;;;;;;;8.45;3.47;;;21.00;99.90;;;;;;5077171;28;20050;-53
2023/07/08 06:45:23;;;;;;;8.90;3.50;;;21.00;99.90;;;;;;5075802;28;20052;-54
2023/07/08 06:47:49;;;;;;;8.27;2.92;;;21.00;99.90;;;;;;5075596;28;20195;-54
2023/07/08 06:50:14;;;;;;;6.47;3.25;;;20.70;99.90;;;;;;5076178;28;20127;-54
2023/07/08 06:52:40;;;;;;;8.85;3.72;;;21.10;99.90;;;;;;5057842;28;20122;-55
2023/07/08 06:55:08;;;;;;;8.50;3.50;;;21.40;99.90;;;;;;5058078;28;20254;-53
2023/07/08 06:57:35;;;;;;;4.82;2.75;;;21.70;99.90;;;;;;5075627;28;20046;-53
2023/07/08 07:00:00;;;;;;;6.32;3.13;;;21.90;99.90;;;;;;5075820;28;20442;-55
2023/07/08 07:02:27;;;;;;;5.82;3.10;;;22.00;99.90;;;;;;5075892;28;20369;-54
2023/07/08 07:04:53;;;;;;;6.10;3.05;;;22.10;99.90;;;;;;5075394;28;20048;-53
2023/07/08 07:07:18;;;;;;;9.45;3.50;;;22.10;99.90;;;;;;5058276;28;20125;-53
2023/07/08 07:09:44;;;;;;;6.18;3.05;;;22.30;99.90;;;;;;5075986;28;20048;-53
2023/07/08 07:12:10;;;;;;;6.78;2.75;;;22.20;99.90;;;;;;5076351;28;20048;-48
2023/07/08 07:14:36;;;;;;;5.93;2.90;;;22.30;99.90;;;;;;5075661;28;20160;-55
2023/07/08 07:17:02;;;;;;;4.65;2.70;;;23.00;99.90;;;;;;5074979;28;20093;-49
2023/07/08 07:19:27;;;;;;;7.00;3.40;;;24.00;99.90;;;;;;5074629;28;20040;-53
2023/07/08 07:21:53;;;;;;;7.25;3.03;;;24.70;99.90;;;;;;5075719;28;20119;-53
2023/07/08 07:24:19;;;;;;;5.78;2.75;;;24.00;99.90;;;;;;5074944;28;20047;-55
2023/07/08 07:26:44;;;;;;;7.45;3.10;;;26.20;99.90;;;;;;5074936;28;20290;-55
2023/07/08 07:29:11;;;;;;;5.55;2.60;;;26.50;99.90;;;;;;5075966;28;20059;-55
2023/07/08 07:31:39;;;;;;;10.52;2.80;;;27.10;99.90;;;;;;5056915;28;20036;-55
2023/07/08 07:34:05;;;;;;;8.07;2.90;;;27.30;99.90;;;;;;5073309;28;20787;-53
2023/07/08 07:36:31;;;;;;;5.82;2.63;;;27.60;99.90;;;;;;5074342;28;20509;-55
2023/07/08 07:38:56;;;;;;;6.50;2.40;;;28.20;99.90;;;;;;5075447;28;20046;-55
2023/07/08 07:41:23;;;;;;;6.45;2.50;;;28.80;99.90;;;;;;5058250;28;20147;-56
2023/07/08 07:43:49;;;;;;;5.25;2.45;;;29.30;99.90;;;;;;5076281;28;20039;-56
2023/07/08 07:46:15;;;;;;;5.20;2.50;;;29.40;99.90;;;;;;5076310;28;20075;-52
2023/07/08 07:48:42;;;;;;;6.93;2.72;;;30.00;99.90;;;;;;5075201;28;20123;-56
2023/07/08 07:51:10;;;;;;;5.18;2.30;;;30.40;99.90;;;;;;5075565;28;20043;-55
2023/07/08 07:53:37;;;;;;;6.38;2.60;;;30.90;99.90;;;;;;5074933;28;20072;-55
2023/07/08 07:56:03;;;;;;;6.97;2.70;;;30.80;99.90;;;;;;5075045;28;20039;-55
2023/07/08 07:58:29;;;;;;;4.80;2.60;;;30.80;99.90;;;;;;5074706;28;20044;-54
2023/07/08 08:00:55;;;;;;;6.28;2.67;;;30.40;99.90;;;;;;5076160;28;20535;-55
2023/07/08 08:03:22;;;;;;;6.63;2.20;;;30.80;99.90;;;;;;5074197;28;20040;-54
2023/07/08 08:05:50;;;;;;;4.75;2.38;;;30.50;99.90;;;;;;5074793;28;20102;-55
2023/07/08 08:08:16;;;;;;;4.80;2.60;;;30.60;99.90;;;;;;5057115;28;20110;-54
2023/07/08 08:10:44;;;;;;;7.88;2.58;;;30.50;99.90;;;;;;5075997;28;20500;-54
2023/07/08 08:13:11;;;;;;;6.38;2.38;;;30.50;99.90;;;;;;5076089;28;20055;-52
2023/07/08 08:15:38;;;;;;;6.07;2.22;;;30.20;99.90;;;;;;5073776;28;20043;-56
2023/07/08 08:18:04;;;;;;;6.15;2.60;;;30.30;99.90;;;;;;5055403;28;20142;-53
2023/07/08 08:20:30;;;;;;;6.38;2.25;;;30.20;99.90;;;;;;5074263;28;20051;-53
2023/07/08 08:22:55;;;;;;;5.07;2.38;;;30.30;99.90;;;;;;5056421;28;20056;-54
2023/07/08 08:25:22;;;;;;;6.15;2.38;;;30.40;99.90;;;;;;5073630;28;20051;-54
2023/07/08 08:27:48;;;;;;;7.38;2.67;;;30.70;99.90;;;;;;5054841;28;20422;-53
2023/07/08 08:30:14;;;;;;;7.65;2.30;;;30.50;99.90;;;;;;5053726;28;20050;-53
2023/07/08 08:32:40;;;;;;;4.45;2.40;;;30.30;99.90;;;;;;5073742;28;20123;-54
2023/07/08 08:35:06;;;;;;;5.60;2.20;;;30.30;99.90;;;;;;5072353;28;20047;-53
2023/07/08 08:37:32;;;;;;;6.18;2.17;;;30.70;99.90;;;;;;5073546;28;20305;-54
2023/07/08 08:39:57;;;;;;;5.95;2.33;;;31.10;99.90;;;;;;5073968;28;20135;-54
2023/07/08 08:42:32;;;;;;;6.97;2.10;;;31.00;99.90;;;;;;5073806;28;20039;-54
2023/07/08 08:45:00;;;;;;;4.88;2.00;;;31.10;99.90;;;;;;5074003;28;20910;-51
2023/07/08 08:47:42;;;;;;;5.63;2.35;;;30.60;99.90;;;;;;5073668;28;20056;-53
2023/07/08 08:50:26;;;;;;;6.13;2.30;;;30.20;99.70;;;;;;5072296;28;20039;-54
2023/07/08 08:52:54;;;;;;;5.90;2.20;;;29.80;99.90;;;;;;5073398;28;20044;-53
2023/07/08 08:55:23;;;;;;;7.55;2.40;;;29.00;99.90;;;;;;5074099;28;20539;-53
2023/07/08 08:58:08;;;;;;;6.10;2.28;;;28.50;99.90;;;;;;5073840;28;20039;-53
2023/07/08 09:01:02;;;;;;;6.13;2.28;;;28.20;99.90;;;;;;5073038;28;20153;-54
2023/07/08 09:03:48;;;;;;;6.28;2.42;;;28.70;99.90;;;;;;5069995;28;20048;-55
2023/07/08 09:06:31;;;;;;;5.43;2.30;;;28.70;99.90;;;;;;5072712;28;20032;-54
2023/07/08 09:09:03;;;;;;;4.97;2.20;;;28.70;99.90;;;;;;5072419;28;20513;-53
2023/07/08 09:11:53;;;;;;;13.75;2.70;;;28.90;99.90;;;;;;5073486;28;20055;-53
2023/07/08 09:14:28;;;;;;;5.55;2.47;;;28.90;99.90;;;;;;5042210;28;20032;-53
2023/07/08 09:17:32;;;;;;;5.72;2.60;;;28.90;99.90;;;;;;5072255;28;20534;-51
2023/07/08 09:20:43;;;;;;;6.72;2.22;;;28.80;99.90;;;;;;5073613;28;20032;-51
2023/07/08 09:23:20;;;;;;;8.18;3.08;;;28.80;99.90;;;;;;4950329;28;20358;-48
2023/07/08 09:25:53;;;;;;;5.22;2.33;;;26.80;99.90;;;;;;5057066;28;20044;-54
2023/07/08 09:28:19;;;;;;;5.15;2.00;;;28.40;99.90;;;;;;5074880;28;20040;-49
2023/07/08 09:30:53;;;;;;;6.85;2.38;;;28.20;99.90;;;;;;5073859;28;20048;-53
2023/07/08 09:33:19;;;;;;;5.80;2.47;;;28.20;99.90;;;;;;5073154;28;20052;-52
2023/07/08 09:35:49;;;;;;;5.60;2.53;;;28.00;99.90;;;;;;5055186;28;20043;-50
2023/07/08 09:38:17;;;;;;;5.78;2.47;;;28.10;99.90;;;;;;5072537;28;20040;-52
2023/07/08 09:40:54;;;;;;;7.30;2.60;;;28.50;99.90;;;;;;5074280;28;20119;-54
2023/07/08 09:43:36;;;;;;;7.30;2.35;;;28.20;99.90;;;;;;5072748;28;20538;-50
2023/07/08 09:46:02;;;;;;;8.63;2.90;;;28.30;99.90;;;;;;5073436;28;20032;-54
2023/07/08 09:48:32;;;;;;;6.00;2.60;;;27.90;99.90;;;;;;5073598;28;20292;-53
2023/07/08 09:50:58;;;;;;;8.82;2.65;;;28.00;99.90;;;;;;5072836;28;20477;-52
2023/07/08 09:53:26;;;;;;;8.60;2.63;;;28.00;99.90;;;;;;5072289;28;20116;-52
2023/07/08 09:55:53;;;;;;;5.85;2.45;;;28.10;99.90;;;;;;5053721;28;20040;-52
2023/07/08 09:58:29;;;;;;;5.30;2.25;;;28.20;99.90;;;;;;5071062;28;20760;-52
2023/07/08 10:00:58;;;;;;;8.48;2.58;;;28.20;99.90;;;;;;5071673;28;20159;-48
2023/07/08 10:03:31;;;;;;;4.65;2.42;;;28.20;99.90;;;;;;5052696;28;20047;-50
2023/07/08 10:06:02;;;;;;;6.38;2.53;;;28.10;99.90;;;;;;5053279;28;20048;-52
2023/07/08 10:08:41;;;;;;;5.57;2.55;;;28.40;99.90;;;;;;5071159;28;20442;-48
2023/07/08 10:11:29;;;;;;;8.52;2.60;;;28.40;99.90;;;;;;5073476;28;20447;-51
2023/07/08 10:14:26;;;;;;;9.27;2.75;;;29.70;99.90;;;;;;5053354;28;20036;-50
2023/07/08 10:16:52;;;;;;;7.57;2.95;;;28.20;99.90;;;;;;5072020;28;20439;-49
2023/07/08 10:19:20;;;;;;;6.22;3.05;;;28.50;99.90;;;;;;5070878;28;20199;-51
2023/07/08 10:21:53;;;;;;;6.95;2.65;;;28.40;99.90;;;;;;5072086;28;20131;-53
2023/07/08 10:25:01;;;;;;;6.72;2.47;;;28.50;99.90;;;;;;5071765;28;20032;-52
2023/07/08 10:27:31;;;;;;;9.35;2.95;;;28.70;99.90;;;;;;5060461;28;20390;-53
2023/07/08 10:29:57;;;;;;;5.23;2.53;;;28.90;99.90;;;;;;5071644;28;20036;-50
2023/07/08 10:32:53;;;;;;;5.90;3.00;;;29.00;99.90;;;;;;5070690;28;20043;-49
2023/07/08 10:35:20;;;;;;;10.93;2.63;;;29.20;99.90;;;;;;5071901;28;20098;-52
2023/07/08 10:38:01;;;;;;;9.57;2.63;;;29.30;99.90;;;;;;5072561;28;20579;-50
2023/07/08 10:40:35;;;;;;;6.72;2.67;;;29.30;99.90;;;;;;5072975;28;20044;-52
2023/07/08 10:43:26;;;;;;;6.85;2.63;;;29.50;99.90;;;;;;5073097;28;20052;-52
2023/07/08 10:46:18;;;;;;;5.88;3.05;;;29.80;99.90;;;;;;5054878;28;20040;-54
2023/07/08 10:49:16;;;;;;;8.48;2.85;;;29.90;99.90;;;;;;5071637;28;20040;-52
2023/07/08 10:51:59;;;;;;;8.05;2.70;;;30.10;99.90;;;;;;5054619;28;20075;-54
2023/07/08 10:54:51;;;;;;;5.75;2.33;;;29.70;99.90;;;;;;5071769;28;20056;-54
2023/07/08 10:57:23;;;;;;;4.90;2.60;;;29.80;99.90;;;;;;5071348;28;20090;-52
2023/07/08 10:59:56;;;;;;;5.15;2.63;;;29.70;99.90;;;;;;5071381;28;20214;-53
2023/07/08 11:03:00;;;;;;;11.88;3.00;;;29.90;99.90;;;;;;5072503;28;20119;-55
2023/07/08 11:05:59;;;;;;;7.28;3.08;;;29.80;99.90;;;;;;5053826;28;20044;-51
2023/07/08 11:08:37;;;;;;;9.32;2.90;;;29.80;99.90;;;;;;5067410;28;20323;-52
2023/07/08 11:11:35;;;;;;;6.95;2.88;;;29.60;99.90;;;;;;5075435;28;20123;-55
2023/07/08 11:14:16;;;;;;;6.32;2.50;;;30.00;99.90;;;;;;5063332;28;20612;-55
2023/07/08 11:16:55;;;;;;;8.48;2.78;;;29.90;99.90;;;;;;5074476;28;20083;-55
2023/07/08 11:19:32;;;;;;;9.15;2.63;;;30.10;99.90;;;;;;5075112;28;20040;-53
2023/07/08 11:22:03;;;;;;;5.60;2.70;;;30.10;99.90;;;;;;5074763;28;20122;-54
2023/07/08 11:24:47;;;;;;;8.93;2.80;;;30.20;99.90;;;;;;5074463;28;20050;-55
2023/07/08 11:27:19;;;;;;;9.20;3.22;;;30.10;99.90;;;;;;5075415;28;20098;-54
2023/07/08 11:30:04;;;;;;;6.60;2.80;;;30.30;99.90;;;;;;5057133;28;20098;-53
2023/07/08 11:32:32;;;;;;;8.00;2.72;;;30.10;99.90;;;;;;5074635;28;20039;-55
2023/07/08 11:35:01;;;;;;;6.85;2.78;;;30.20;99.90;;;;;;5073435;28;20372;-54
2023/07/08 11:37:29;;;;;;;4.95;2.53;;;30.20;99.90;;;;;;5074129;28;20507;-54
2023/07/08 11:40:08;;;;;;;7.68;2.30;;;30.10;99.90;;;;;;5073926;28;20067;-55
2023/07/08 11:42:44;;;;;;;6.95;2.88;;;30.50;99.90;;;;;;5074991;28;20062;-54
2023/07/08 11:45:32;;;;;;;6.88;2.95;;;30.20;99.90;;;;;;5075342;28;20370;-55
2023/07/08 11:48:14;;;;;;;8.57;2.70;;;30.70;99.90;;;;;;5073773;28;20454;-54
2023/07/08 11:50:44;;;;;;;6.13;2.97;;;30.80;99.90;;;;;;5074213;28;20047;-54
2023/07/08 11:53:33;;;;;;;6.78;3.03;;;31.10;99.90;;;;;;5075114;28;20118;-55
2023/07/08 11:56:24;;;;;;;9.13;3.28;;;31.10;99.90;;;;;;5074511;28;20064;-54
2023/07/08 11:58:50;;;;;;;7.45;2.83;;;30.90;99.90;;;;;;5073921;28;20152;-55
2023/07/08 12:01:39;;;;;;;8.35;2.95;;;29.10;99.60;;;;;;5073700;28;20142;-55
2023/07/08 12:04:24;;;;;;;5.50;3.15;;;31.00;99.30;;;;;;5074021;28;20447;-54
2023/07/08 12:07:09;;;;;;;6.65;2.92;;;30.80;99.20;;;;;;5076254;28;20151;-55
2023/07/08 12:10:11;;;;;;;6.68;3.30;;;30.70;99.10;;;;;;5074262;28;20556;-54
2023/07/08 12:12:41;;;;;;;7.10;3.08;;;30.90;99.80;;;;;;4959196;28;20073;-55
2023/07/08 12:15:10;;;;;;;6.43;2.95;;;31.20;99.00;;;;;;5055224;28;20351;-54
2023/07/08 12:17:39;;;;;;;6.25;2.85;;;31.00;98.90;;;;;;5074738;28;20113;-54
2023/07/08 12:20:29;;;;;;;8.43;2.83;;;30.90;99.50;;;;;;5073058;28;20084;-54
2023/07/08 12:22:55;;;;;;;5.30;2.83;;;30.90;98.90;;;;;;5074149;28;20501;-55
2023/07/08 12:25:26;;;;;;;6.07;2.90;;;31.20;99.40;;;;;;5073797;28;20844;-56
2023/07/08 12:27:52;;;;;;;9.10;3.03;;;31.00;99.20;;;;;;5074445;28;20573;-55
2023/07/08 12:30:18;;;;;;;7.43;3.00;;;31.00;98.60;;;;;;5075456;28;20064;-55
2023/07/08 12:32:46;;;;;;;5.53;2.55;;;31.00;98.70;;;;;;5074457;28;20127;-56
2023/07/08 12:35:23;;;;;;;10.32;2.60;;;30.80;99.20;;;;;;5073646;28;20043;-56
2023/07/08 12:37:52;;;;;;;6.05;2.95;;;31.00;98.60;;;;;;5073491;28;20349;-54
2023/07/08 12:40:17;;;;;;;5.85;2.60;;;31.10;99.20;;;;;;5072611;28;20058;-55
2023/07/08 12:42:45;;;;;;;6.95;2.90;;;31.10;99.30;;;;;;5073629;28;20044;-55
2023/07/08 12:45:21;;;;;;;5.18;2.92;;;31.00;99.00;;;;;;5073708;28;20142;-54
2023/07/08 12:47:47;;;;;;;8.93;3.10;;;30.90;97.70;;;;;;5073566;28;20480;-55
2023/07/08 12:50:13;;;;;;;8.23;2.95;;;31.10;99.20;;;;;;5073472;28;20054;-55
2023/07/08 12:52:40;;;;;;;4.18;2.60;;;31.20;99.50;;;;;;5073243;28;20278;-55
2023/07/08 12:55:10;;;;;;;5.90;2.80;;;31.30;99.40;;;;;;5072410;28;20067;-55
2023/07/08 12:57:37;;;;;;;5.10;2.90;;;31.40;99.30;;;;;;5071972;28;20074;-56
2023/07/08 13:00:04;;;;;;;6.78;3.45;;;31.30;98.90;;;;;;5073361;28;20132;-60
2023/07/08 13:02:32;;;;;;;5.20;2.78;;;31.40;97.80;;;;;;5073071;28;20073;-59